Página principal
METAR-TAF:

METAR-TAF

Aeroportos :

St Mary's, Alasca, Estados Unidos

latitude: 62-03N, longitude: 163-18W, altura: 95 m

Observação actual do tempo

O boletim foi feito há 16 minutos, às 17:56 UTC
Vento 3 kt de nordeste
Temperatura 11°C
Humidade 94%
Pressão 1017 hPa
Visibilidade: 16.1 km
Nuvens fragmentadasa uma altura de 6500 ft
Encobertoa uma altura de 10000 ft

METAR: PASM 201756Z AUTO 04003KT 10SM BKN065 OVC100 11/10 A3004 RMK AO2 SLP179 60028 T01110100 10117 20089 50002

Hora: 10:12 (18:12 UTC)


TAF: em falta

Observações e previsões do tempo de mais de 4000 aeroportos (mensagens METAR e TAF).

As estações disponíveis são os pontos amarelos e vermelhos sobre o mapa.

Mova o rato sobre o mapa para ver o nome da estação.

Depois clique no ponto para visualizar as observações e previsões meteorológicas.

Para alterar o mapa : clique nos botões verdes com uma cruz preta para aumentar o zoom; no botão verde com uma pitada de zoom; ou nas setas verdes para mapas adjacentes.


METAR-TAF: